地図

経路データ

SID SEASON NUMBER BASIN SUBBASIN NAME ISO_TIME NATURE LAT LON WMO_WIND WMO_PRES WMO_AGENCY TRACK_TYPE DIST2LAND LANDFALL IFLAG USA_AGENCY USA_ATCF_ID USA_LAT USA_LON USA_RECORD USA_STATUS USA_WIND USA_PRES USA_SSHS USA_R34_NE USA_R34_SE USA_R34_SW USA_R34_NW USA_R50_NE USA_R50_SE USA_R50_SW USA_R50_NW USA_R64_NE USA_R64_SE USA_R64_SW USA_R64_NW USA_POCI USA_ROCI USA_RMW USA_EYE TOKYO_LAT TOKYO_LON TOKYO_GRADE TOKYO_WIND TOKYO_PRES TOKYO_R50_DIR TOKYO_R50_LONG TOKYO_R50_SHORT TOKYO_R30_DIR TOKYO_R30_LONG TOKYO_R30_SHORT TOKYO_LAND CMA_LAT CMA_LON CMA_CAT CMA_WIND CMA_PRES HKO_LAT HKO_LON HKO_CAT HKO_WIND HKO_PRES NEWDELHI_LAT NEWDELHI_LON NEWDELHI_GRADE NEWDELHI_WIND NEWDELHI_PRES NEWDELHI_CI NEWDELHI_DP NEWDELHI_POCI REUNION_LAT REUNION_LON REUNION_TYPE REUNION_WIND REUNION_PRES REUNION_TNUM REUNION_CI REUNION_RMW REUNION_R34_NE REUNION_R34_SE REUNION_R34_SW REUNION_R34_NW REUNION_R50_NE REUNION_R50_SE REUNION_R50_SW REUNION_R50_NW REUNION_R64_NE REUNION_R64_SE REUNION_R64_SW REUNION_R64_NW BOM_LAT BOM_LON BOM_TYPE BOM_WIND BOM_PRES BOM_TNUM BOM_CI BOM_RMW BOM_R34_NE BOM_R34_SE BOM_R34_SW BOM_R34_NW BOM_R50_NE BOM_R50_SE BOM_R50_SW BOM_R50_NW BOM_R64_NE BOM_R64_SE BOM_R64_SW BOM_R64_NW BOM_ROCI BOM_POCI BOM_EYE BOM_POS_METHOD BOM_PRES_METHOD NADI_LAT NADI_LON NADI_CAT NADI_WIND NADI_PRES WELLINGTON_LAT WELLINGTON_LON WELLINGTON_WIND WELLINGTON_PRES DS824_LAT DS824_LON DS824_STAGE DS824_WIND DS824_PRES TD9636_LAT TD9636_LON TD9636_STAGE TD9636_WIND TD9636_PRES TD9635_LAT TD9635_LON TD9635_WIND TD9635_PRES TD9635_ROCI NEUMANN_LAT NEUMANN_LON NEUMANN_CLASS NEUMANN_WIND NEUMANN_PRES MLC_LAT MLC_LON MLC_CLASS MLC_WIND MLC_PRES USA_GUST BOM_GUST BOM_GUST_PER REUNION_GUST REUNION_GUST_PER USA_SEAHGT USA_SEARAD_NE USA_SEARAD_SE USA_SEARAD_SW USA_SEARAD_NW STORM_SPEED STORM_DIR
1991300N06149 1991 84 WP MM NOT_NAMED 1991-10-27 00:00:00 NR 6.00000 148.800 spur-merge 920 917 O_____________ jtwc_wp WP271991 6.00000 148.800 15 -1 7 284
1991300N06149 1991 84 WP MM NOT_NAMED 1991-10-27 03:00:00 NR 6.08756 148.438 spur-merge 925 923 P_____________ WP271991 6.08756 148.438 15 -1 7 286
1991300N06149 1991 84 WP MM NOT_NAMED 1991-10-27 06:00:00 NR 6.20000 148.100 spur-merge 933 932 O_____________ jtwc_wp WP271991 6.20000 148.100 15 -1 7 292
1991300N06149 1991 84 WP MM NOT_NAMED 1991-10-27 09:00:00 NR 6.34996 147.800 spur-merge 942 942 P_____________ WP271991 6.34996 147.800 15 -1 7 297
1991300N06149 1991 84 WP MM NOT_NAMED 1991-10-27 12:00:00 NR 6.50000 147.500 spur-merge 963 963 O_____________ jtwc_wp WP271991 6.50000 147.500 15 -1 7 292
1991300N06149 1991 84 WP MM NOT_NAMED 1991-10-27 15:00:00 NR 6.59997 147.165 spur-merge 974 974 P_____________ WP271991 6.59997 147.165 17 -1 7 286
1991300N06149 1991 84 WP MM NOT_NAMED 1991-10-27 18:00:00 NR 6.70000 146.800 spur-merge 986 986 O_____________ jtwc_wp WP271991 6.70000 146.800 20 -1 8 288
1991300N06149 1991 84 WP MM NOT_NAMED 1991-10-27 21:00:00 NR 6.85000 146.400 spur-merge 1008 1008 P_____________ WP271991 6.85000 146.400 20 -1 9 291
1991300N06149 1991 84 WP MM NOT_NAMED 1991-10-28 00:00:00 NR 7.00000 146.000 spur-merge 1021 1021 O_____________ jtwc_wp WP271991 7.00000 146.000 20 -1 8 289
1991300N06149 1991 84 WP MM NOT_NAMED 1991-10-28 03:00:00 NR 7.10746 145.642 spur-merge 1036 1036 P_____________ WP271991 7.10746 145.642 20 -1 7 286
1991300N06149 1991 84 WP MM NOT_NAMED 1991-10-28 06:00:00 NR 7.20000 145.300 spur-merge 1052 1052 O_____________ jtwc_wp WP271991 7.20000 145.300 20 -1 7 286
1991300N06149 1991 84 WP MM NOT_NAMED 1991-10-28 09:00:00 NR 7.29997 144.950 spur-merge 1068 1068 P_____________ WP271991 7.29997 144.950 20 -1 7 286
1991300N06149 1991 84 WP MM NOT_NAMED 1991-10-28 12:00:00 NR 7.40000 144.600 spur-merge 1087 1087 O_____________ jtwc_wp WP271991 7.40000 144.600 20 -1 7 286
1991300N06149 1991 84 WP MM NOT_NAMED 1991-10-28 15:00:00 NR 7.49245 144.257 spur-merge 1105 1105 P_____________ WP271991 7.49245 144.257 20 -1 7 286
1991300N06149 1991 84 WP MM NOT_NAMED 1991-10-28 18:00:00 NR 7.60000 143.900 spur-merge 1127 1127 O_____________ jtwc_wp WP271991 7.60000 143.900 20 -1 8 289
1991300N06149 1991 84 WP MM NOT_NAMED 1991-10-28 21:00:00 NR 7.74998 143.508 spur-merge 1150 1150 P_____________ WP271991 7.74998 143.508 20 -1 8 291
1991300N06149 1991 84 WP MM NOT_NAMED 1991-10-29 00:00:00 NR 7.90000 143.100 spur-merge 1186 1182 O_____________ jtwc_wp WP271991 7.90000 143.100 20 -1 8 288
1991300N06149 1991 84 WP MM NOT_NAMED 1991-10-29 03:00:00 NR 8.00748 142.692 spur-merge 1184 1176 P_____________ WP271991 8.00748 142.692 20 -1 8 284
1991300N06149 1991 84 WP MM NOT_NAMED 1991-10-29 06:00:00 NR 8.10000 142.300 spur-merge 1178 1169 O_____________ jtwc_wp WP271991 8.10000 142.300 20 -1 8 284
1991300N06149 1991 84 WP MM NOT_NAMED 1991-10-29 09:00:00 NR 8.19245 141.942 spur-merge 1172 1168 P_____________ WP271991 8.19245 141.942 20 -1 7 286
1991300N06149 1991 84 WP MM NOT_NAMED 1991-10-29 12:00:00 NR 8.30000 141.600 spur-merge 1171 1168 O_____________ jtwc_wp WP271991 8.30000 141.600 20 -1 7 291
1991300N06149 1991 84 WP MM NOT_NAMED 1991-10-29 15:00:00 NR 8.44997 141.250 spur-merge 1172 1172 P_____________ WP271991 8.44997 141.250 20 -1 8 293
1991300N06149 1991 84 WP MM NOT_NAMED 1991-10-29 18:00:00 NR 8.60000 140.900 spur-merge 1181 1176 O_____________ jtwc_wp WP271991 8.60000 140.900 20 -1 7 290
1991300N06149 1991 84 WP MM NOT_NAMED 1991-10-29 21:00:00 NR 8.69999 140.542 spur-merge 1180 1175 P_____________ WP271991 8.69999 140.542 20 -1 7 286
1991300N06149 1991 84 WP MM NOT_NAMED 1991-10-30 00:00:00 NR 8.80000 140.200 spur-merge 1176 1172 O_____________ jtwc_wp WP271991 8.80000 140.200 20 -1 7 292
1991300N06149 1991 84 WP MM NOT_NAMED 1991-10-30 03:00:00 NR 8.94994 139.900 spur-merge 1173 1173 P_____________ WP271991 8.94994 139.900 20 -1 7 297
1991300N06149 1991 84 WP MM NOT_NAMED 1991-10-30 06:00:00 NR 9.10000 139.600 spur-merge 1182 1178 O_____________ jtwc_wp WP271991 9.10000 139.600 20 -1 7 292
1991300N06149 1991 84 WP MM NOT_NAMED 1991-10-30 09:00:00 NR 9.19999 139.257 spur-merge 1182 1175 P_____________ WP271991 9.19999 139.257 22 -1 7 286
1991300N06149 1991 84 WP MM NOT_NAMED 1991-10-30 12:00:00 NR 9.30000 138.900 spur-merge 1178 1175 O_____________ jtwc_wp WP271991 9.30000 138.900 25 -1 7 289
1991300N06149 1991 84 WP MM NOT_NAMED 1991-10-30 15:00:00 NR 9.43497 138.550 spur-merge 1179 1176 P_____________ WP271991 9.43497 138.550 25 -1 8 293
1991300N06149 1991 84 WP MM NOT_NAMED 1991-10-30 18:00:00 NR 9.60000 138.200 spur-merge 1189 1186 O_____________ jtwc_wp WP271991 9.60000 138.200 25 -1 8 297
1991300N06149 1991 84 WP MM NOT_NAMED 1991-10-30 21:00:00 NR 9.79246 137.850 spur-merge 1201 1201 P_____________ WP271991 9.79246 137.850 25 -1 8 300
1991300N06149 1991 84 WP MM NOT_NAMED 1991-10-31 00:00:00 NR 10.0000 137.500 spur-merge 1217 1195 O_____________ jtwc_wp WP271991 10.0000 137.500 25 -1 8 300
1991300N06149 1991 84 WP MM NOT_NAMED 1991-10-31 03:00:00 NR 10.1925 137.150 spur-merge 1187 1160 P_____________ WP271991 10.1925 137.150 25 -1 8 300
1991300N06149 1991 84 WP MM NOT_NAMED 1991-10-31 06:00:00 NR 10.4000 136.800 spur-merge 1160 1135 O_____________ jtwc_wp WP271991 10.4000 136.800 25 -1 8 303
1991300N06149 1991 84 WP MM NOT_NAMED 1991-10-31 09:00:00 NR 10.6425 136.443 spur-merge 1124 1099 P_____________ WP271991 10.6425 136.443 25 -1 9 306
1991300N06149 1991 84 WP MM NOT_NAMED 1991-10-31 12:00:00 NR 10.9000 136.100 spur-merge 1099 1072 O_____________ jtwc_wp WP271991 10.9000 136.100 25 -1 8 308
1991300N06149 1991 84 WP MM NOT_NAMED 1991-10-31 15:00:00 NR 11.1425 135.785 spur-merge 1072 1047 P_____________ WP271991 11.1425 135.785 25 -1 8 310
1991300N06149 1991 84 WP MM NOT_NAMED 1991-10-31 18:00:00 NR 11.4000 135.500 spur-merge 1047 1031 O_____________ jtwc_wp WP271991 11.4000 135.500 25 -1 8 316
1991300N06149 1991 84 WP MM NOT_NAMED 1991-10-31 21:00:00 NR 11.7000 135.242 spur-merge 1023 1009 P_____________ WP271991 11.6900 135.243 25 -1 8 321
1991300N06149 1991 84 WP MM NOT_NAMED 1991-11-01 00:00:00 NR 12.0000 135.000 spur-merge 1009 O_____________ jtwc_wp WP271991 12.0000 135.000 25 -1 8 321

デジタル台風データ・検索

IBTrACS Databaseについて

本データベースは、米国NOAAが公開する1842年以降の世界の熱帯低気圧のベストトラックデータアーカイブInternational Best Track Archive for Climate Stewardship (IBTrACS)を、ウェブで閲覧しやすい形式に変換したものです。

最終更新日:2021-12-03